Time;durP1;ratioP1;P1;durP2;ratioP2;P2;SDS_P1;SDS_P2;PMS_P1;PMS_P2;Temp;Humidity;BMP_temperature;BMP_pressure;BME280_temperature;BME280_humidity;BME280_pressure;Samples;Min_cycle;Max_cycle;Signal;HPM_P1;HPM_P2
2023/12/05 00:00:23;;;;;;;;;;;;;;;21.27;24.93;98686.56;5034124;28;962;-76
2023/12/05 00:02:49;;;;;;;;;;;;;;;21.00;25.56;98683.72;5039162;28;1033;-75
2023/12/05 00:05:14;;;;;;;;;;;;;;;21.45;24.93;98675.00;5039092;28;945;-76
2023/12/05 00:07:42;;;;;;;;;;;;;;;21.78;24.20;98678.94;5015260;28;1026;-76
2023/12/05 00:10:09;;;;;;;;;;;;;;;21.94;24.00;98678.25;4982644;28;1118;-76
2023/12/05 00:12:35;;;;;;;;;;;;;;;21.90;24.28;98674.69;4979058;28;1116;-75
2023/12/05 00:15:00;;;;;;;;;;;;;;;21.92;24.04;98687.19;4979018;28;1048;-76
2023/12/05 00:17:26;;;;;;;;;;;;;;;21.95;24.16;98688.34;4994996;28;1902;-76
2023/12/05 00:19:51;;;;;;;;;;;;;;;21.84;24.46;98682.88;4994684;28;1226;-76
2023/12/05 00:22:17;;;;;;;;;;;;;;;21.96;24.43;98687.13;4994789;28;1013;-76
2023/12/05 00:24:43;;;;;;;;;;;;;;;21.45;25.06;98687.16;4963161;28;1046;-76
2023/12/05 00:27:09;;;;;;;;;;;;;;;21.42;24.90;98687.19;4978853;28;1010;-75
2023/12/05 00:29:34;;;;;;;;;;;;;;;21.29;25.09;98695.41;4978947;28;1036;-76
2023/12/05 00:32:00;;;;;;;;;;;;;;;21.61;24.84;98699.84;4978787;28;1110;-76
2023/12/05 00:34:25;;;;;;;;;;;;;;;21.72;24.75;98692.78;4978650;28;1045;-75
2023/12/05 00:36:51;;;;;;;;;;;;;;;21.71;24.91;98696.03;4962549;28;1902;-76
2023/12/05 00:39:16;;;;;;;;;;;;;;;21.63;24.85;98686.84;4970637;28;1295;-76
2023/12/05 00:41:42;;;;;;;;;;;;;;;21.76;24.61;98679.38;4959353;28;1110;-76
2023/12/05 00:44:08;;;;;;;;;;;;;;;21.76;24.77;98665.22;4975578;28;1003;-76
2023/12/05 00:46:33;;;;;;;;;;;;;;;21.70;24.40;98658.41;4975191;28;900;-75
2023/12/05 00:48:59;;;;;;;;;;;;;;;21.26;25.10;98657.47;4958975;28;1190;-75
2023/12/05 00:51:24;;;;;;;;;;;;;;;21.70;24.65;98649.91;4975154;28;1050;-76
2023/12/05 00:53:50;;;;;;;;;;;;;;;21.76;24.89;98650.22;4958806;28;1084;-75
2023/12/05 00:56:17;;;;;;;;;;;;;;;21.49;25.23;98644.59;4959351;28;1985;-75
2023/12/05 00:58:42;;;;;;;;;;;;;;;21.88;24.35;98654.50;4962438;28;1077;-77
2023/12/05 01:01:08;;;;;;;;;;;;;;;21.90;24.33;98646.34;5014346;28;1050;-76
2023/12/05 01:03:33;;;;;;;;;;;;;;;21.95;24.42;98648.69;5014204;28;997;-76
2023/12/05 01:05:59;;;;;;;;;;;;;;;21.66;25.00;98648.38;4981674;28;1130;-76
2023/12/05 01:08:25;;;;;;;;;;;;;;;21.84;24.54;98644.00;4997863;28;1282;-76
2023/12/05 01:10:50;;;;;;;;;;;;;;;21.84;24.49;98641.16;5045163;28;941;-76
2023/12/05 01:13:16;;;;;;;;;;;;;;;21.66;24.74;98635.03;5056092;28;923;-75
2023/12/05 01:15:41;;;;;;;;;;;;;;;21.46;25.07;98631.31;5038327;28;907;-75
2023/12/05 01:18:07;;;;;;;;;;;;;;;21.27;25.25;98635.63;5020332;28;1902;-76
2023/12/05 01:20:33;;;;;;;;;;;;;;;21.16;25.42;98629.31;5037895;28;966;-76
2023/12/05 01:22:58;;;;;;;;;;;;;;;21.76;24.99;98638.88;5021807;28;1180;-75
2023/12/05 01:25:24;;;;;;;;;;;;;;;21.79;24.66;98638.84;5038079;28;916;-75
2023/12/05 01:27:50;;;;;;;;;;;;;;;21.61;25.00;98634.72;5038316;28;1020;-75
2023/12/05 01:30:16;;;;;;;;;;;;;;;21.83;24.83;98633.91;5037971;28;1081;-76
2023/12/05 01:32:42;;;;;;;;;;;;;;;21.74;24.93;98628.00;5055898;28;906;-76
2023/12/05 01:35:07;;;;;;;;;;;;;;;21.80;24.58;98626.25;5038202;28;1455;-76
2023/12/05 01:37:33;;;;;;;;;;;;;;;21.83;24.59;98622.59;5038133;28;1985;-76
2023/12/05 01:39:58;;;;;;;;;;;;;;;21.83;24.42;98616.91;5037984;28;1240;-76
2023/12/05 01:42:24;;;;;;;;;;;;;;;22.00;24.43;98608.53;5038262;28;1180;-77
2023/12/05 01:44:49;;;;;;;;;;;;;;;22.04;24.42;98593.06;5016865;28;1084;-76
2023/12/05 01:47:16;;;;;;;;;;;;;;;21.53;24.85;98597.22;5000793;28;1114;-76
2023/12/05 01:49:41;;;;;;;;;;;;;;;21.30;24.97;98589.50;5017109;28;924;-75
2023/12/05 01:52:07;;;;;;;;;;;;;;;21.70;24.74;98589.63;5017073;28;992;-76
2023/12/05 01:54:33;;;;;;;;;;;;;;;21.72;24.85;98590.81;5000617;28;1148;-76
2023/12/05 01:56:58;;;;;;;;;;;;;;;21.79;24.70;98584.22;5033540;28;1914;-75
2023/12/05 01:59:24;;;;;;;;;;;;;;;21.75;24.51;98591.97;4958216;28;957;-76
2023/12/05 02:01:50;;;;;;;;;;;;;;;21.82;24.72;98592.66;4943021;28;959;-76
2023/12/05 02:04:16;;;;;;;;;;;;;;;22.00;24.33;98591.53;4959154;28;1121;-76
2023/12/05 02:06:41;;;;;;;;;;;;;;;21.81;24.75;98593.06;4962221;28;925;-75
2023/12/05 02:09:08;;;;;;;;;;;;;;;21.72;24.69;98592.84;4939508;29;1044;-76
2023/12/05 02:11:34;;;;;;;;;;;;;;;21.77;24.64;98583.84;4923591;29;1346;-76
2023/12/05 02:13:59;;;;;;;;;;;;;;;21.25;25.47;98587.94;4923794;29;903;-76
2023/12/05 02:16:41;;;;;;;;;;;;;;;21.31;25.16;98597.56;4920347;29;1972;-76
2023/12/05 02:19:07;;;;;;;;;;;;;;;21.18;25.68;98590.84;4920603;29;1275;-75
2023/12/05 02:21:32;;;;;;;;;;;;;;;21.53;25.18;98591.56;4920292;29;1248;-76
2023/12/05 02:24:27;;;;;;;;;;;;;;;21.51;25.19;98600.47;4936335;29;1029;-76
2023/12/05 02:26:53;;;;;;;;;;;;;;;21.77;24.70;98578.19;4920312;29;1427;-76
2023/12/05 02:29:19;;;;;;;;;;;;;;;22.06;24.52;98589.78;4883710;29;975;-75
2023/12/05 02:31:44;;;;;;;;;;;;;;;21.67;24.97;98577.16;4901353;29;1236;-76
2023/12/05 02:34:10;;;;;;;;;;;;;;;21.41;25.17;98572.34;4901470;29;996;-76
2023/12/05 02:36:45;;;;;;;;;;;;;;;21.19;25.55;98569.84;4901014;29;1903;-75
2023/12/05 02:39:12;;;;;;;;;;;;;;;21.51;25.12;98575.00;4903468;29;1286;-76
2023/12/05 02:41:38;;;;;;;;;;;;;;;21.70;24.89;98573.44;4920110;29;986;-76
2023/12/05 02:44:07;;;;;;;;;;;;;;;21.62;25.21;98571.19;4920149;29;1062;-76
2023/12/05 02:46:33;;;;;;;;;;;;;;;21.84;24.80;98573.19;4919848;29;1016;-76
2023/12/05 02:48:58;;;;;;;;;;;;;;;21.84;24.88;98570.34;4919954;29;1010;-76
2023/12/05 02:51:24;;;;;;;;;;;;;;;21.78;24.97;98568.47;4920128;29;980;-75
2023/12/05 02:53:50;;;;;;;;;;;;;;;21.77;24.90;98561.19;4923013;29;976;-76
2023/12/05 02:56:15;;;;;;;;;;;;;;;21.88;24.86;98572.31;4938944;29;1910;-76
2023/12/05 02:58:41;;;;;;;;;;;;;;;21.87;24.87;98571.53;4958021;29;912;-76
2023/12/05 03:01:06;;;;;;;;;;;;;;;21.93;24.69;98569.00;4958095;29;939;-75
2023/12/05 03:03:32;;;;;;;;;;;;;;;21.91;24.97;98568.63;4993138;28;936;-76
2023/12/05 03:05:57;;;;;;;;;;;;;;;21.65;25.16;98564.63;5032741;28;1206;-76
2023/12/05 03:08:23;;;;;;;;;;;;;;;21.32;25.66;98567.22;5032523;28;1359;-76
2023/12/05 03:10:49;;;;;;;;;;;;;;;20.95;26.13;98574.66;5032760;28;987;-76
2023/12/05 03:13:14;;;;;;;;;;;;;;;21.07;25.96;98564.75;5032582;28;915;-76
2023/12/05 03:15:40;;;;;;;;;;;;;;;21.39;25.60;98557.81;5015851;28;1137;-76
2023/12/05 03:18:05;;;;;;;;;;;;;;;21.44;25.41;98562.97;5032284;28;1918;-76
2023/12/05 03:20:31;;;;;;;;;;;;;;;21.70;25.04;98559.28;5015734;28;1063;-75
2023/12/05 03:22:57;;;;;;;;;;;;;;;21.75;25.17;98557.97;4999560;28;1117;-76
2023/12/05 03:25:22;;;;;;;;;;;;;;;21.78;25.14;98557.94;5016015;28;964;-76
2023/12/05 03:27:48;;;;;;;;;;;;;;;21.82;24.90;98561.50;5032552;28;978;-75
2023/12/05 03:30:13;;;;;;;;;;;;;;;21.91;24.90;98558.06;5015789;28;958;-75
2023/12/05 03:32:39;;;;;;;;;;;;;;;21.93;24.69;98555.63;4999392;28;933;-76
2023/12/05 03:35:05;;;;;;;;;;;;;;;21.61;25.34;98561.88;4983041;28;984;-76
2023/12/05 03:37:30;;;;;;;;;;;;;;;21.25;25.86;98562.47;4982832;28;1986;-76
2023/12/05 03:39:56;;;;;;;;;;;;;;;21.56;25.48;98560.34;4983198;28;1096;-76
2023/12/05 03:42:21;;;;;;;;;;;;;;;21.30;25.60;98555.56;5019131;28;905;-75
2023/12/05 03:44:47;;;;;;;;;;;;;;;21.45;25.55;98550.41;5006115;28;1299;-76
2023/12/05 03:47:12;;;;;;;;;;;;;;;21.93;24.86;98549.16;5023281;28;887;-76
2023/12/05 03:49:38;;;;;;;;;;;;;;;21.85;24.96;98545.66;5057188;28;958;-76
2023/12/05 03:52:04;;;;;;;;;;;;;;;21.90;24.67;98547.19;5018806;28;1752;-76
2023/12/05 03:54:29;;;;;;;;;;;;;;;22.01;24.89;98551.41;5018375;28;987;-76
2023/12/05 03:56:55;;;;;;;;;;;;;;;21.92;24.76;98541.91;5018270;28;1906;-76
2023/12/05 03:59:20;;;;;;;;;;;;;;;21.81;25.19;98545.75;5018569;28;1174;-76
2023/12/05 04:01:46;;;;;;;;;;;;;;;21.84;24.88;98542.03;5035020;28;1045;-75
2023/12/05 04:04:12;;;;;;;;;;;;;;;21.46;25.28;98541.50;5018269;28;971;-76
2023/12/05 04:06:37;;;;;;;;;;;;;;;21.14;25.77;98541.22;5015012;28;1123;-76
2023/12/05 04:09:04;;;;;;;;;;;;;;;21.54;25.55;98536.50;4998376;28;1285;-76
2023/12/05 04:11:30;;;;;;;;;;;;;;;21.59;25.36;98533.97;5015352;28;955;-76
2023/12/05 04:13:56;;;;;;;;;;;;;;;21.81;25.07;98537.25;4998762;28;1008;-76
2023/12/05 04:16:22;;;;;;;;;;;;;;;21.70;25.25;98539.44;4998692;28;1899;-76
2023/12/05 04:18:48;;;;;;;;;;;;;;;21.76;25.15;98537.75;4998750;28;918;-76
2023/12/05 04:21:13;;;;;;;;;;;;;;;21.74;25.23;98545.06;4982752;28;1311;-76
2023/12/05 04:23:39;;;;;;;;;;;;;;;21.85;25.14;98540.78;4940296;29;1230;-76
2023/12/05 04:26:06;;;;;;;;;;;;;;;21.87;25.17;98536.75;4940498;29;952;-76
2023/12/05 04:28:32;;;;;;;;;;;;;;;21.83;25.10;98537.59;4942037;28;1098;-76
2023/12/05 04:30:57;;;;;;;;;;;;;;;21.43;25.61;98524.59;4959423;28;1045;-76
2023/12/05 04:33:23;;;;;;;;;;;;;;;21.02;25.97;98534.13;4975952;28;1079;-76
2023/12/05 04:35:49;;;;;;;;;;;;;;;21.54;25.31;98530.84;4959568;28;1156;-76
2023/12/05 04:38:15;;;;;;;;;;;;;;;21.41;25.82;98532.72;4990131;28;1972;-76
2023/12/05 04:40:41;;;;;;;;;;;;;;;21.58;25.41;98526.72;4978940;28;951;-76
2023/12/05 04:43:06;;;;;;;;;;;;;;;21.65;25.49;98531.44;4995120;28;951;-75
2023/12/05 04:45:32;;;;;;;;;;;;;;;21.72;25.04;98520.00;4978927;28;1033;-76
2023/12/05 04:47:57;;;;;;;;;;;;;;;21.96;25.08;98517.09;4994864;28;1026;-76
2023/12/05 04:50:23;;;;;;;;;;;;;;;21.93;24.96;98520.84;4978911;28;1109;-76
2023/12/05 04:52:48;;;;;;;;;;;;;;;21.41;25.38;98532.72;4994510;28;1002;-76
2023/12/05 04:55:14;;;;;;;;;;;;;;;21.47;25.31;98531.00;4946408;28;1103;-76
2023/12/05 04:57:40;;;;;;;;;;;;;;;21.54;25.30;98528.81;4978431;28;1926;-77
2023/12/05 05:00:06;;;;;;;;;;;;;;;21.82;25.03;98535.22;4984605;28;978;-76
2023/12/05 05:02:32;;;;;;;;;;;;;;;21.86;25.23;98535.91;5038599;28;948;-76
2023/12/05 05:04:57;;;;;;;;;;;;;;;21.79;25.00;98536.84;5021866;28;1566;-75
2023/12/05 05:07:23;;;;;;;;;;;;;;;21.85;24.74;98546.44;5038471;28;983;-76
2023/12/05 05:09:49;;;;;;;;;;;;;;;21.85;25.16;98543.63;5018683;28;1233;-75
2023/12/05 05:12:15;;;;;;;;;;;;;;;21.92;24.92;98533.41;5036456;28;912;-76
2023/12/05 05:14:40;;;;;;;;;;;;;;;21.59;25.43;98538.84;5018459;28;960;-76
2023/12/05 05:17:07;;;;;;;;;;;;;;;21.23;25.75;98545.09;5034771;28;1910;-76
2023/12/05 05:19:33;;;;;;;;;;;;;;;21.62;25.26;98538.00;5033368;28;1166;-76
2023/12/05 05:21:58;;;;;;;;;;;;;;;21.89;24.91;98534.25;5001243;28;945;-76
2023/12/05 05:24:24;;;;;;;;;;;;;;;21.61;25.40;98542.06;5017302;28;1085;-76
2023/12/05 05:26:50;;;;;;;;;;;;;;;21.70;24.94;98530.94;5017146;28;1210;-76
2023/12/05 05:29:15;;;;;;;;;;;;;;;21.63;25.12;98516.13;5000956;28;735;-76
2023/12/05 05:31:41;;;;;;;;;;;;;;;21.97;24.63;98524.41;5016903;28;864;-76
2023/12/05 05:34:07;;;;;;;;;;;;;;;21.67;25.12;98514.84;5000575;28;795;-76
2023/12/05 05:36:32;;;;;;;;;;;;;;;21.52;25.27;98507.84;5016699;28;1976;-76
2023/12/05 05:38:58;;;;;;;;;;;;;;;21.63;25.02;98511.28;5015637;28;889;-76
2023/12/05 05:41:23;;;;;;;;;;;;;;;21.58;25.43;98511.78;5001442;28;990;-76
2023/12/05 05:43:49;;;;;;;;;;;;;;;21.79;25.18;98505.69;5017461;28;1250;-76
2023/12/05 05:46:14;;;;;;;;;;;;;;;21.72;25.32;98503.00;5017802;28;803;-76
2023/12/05 05:48:40;;;;;;;;;;;;;;;22.10;24.73;98500.66;4977960;28;926;-75
2023/12/05 05:51:06;;;;;;;;;;;;;;;21.97;24.87;98484.72;4962321;28;872;-76
2023/12/05 05:53:32;;;;;;;;;;;;;;;21.90;25.12;98497.00;4923817;29;1132;-76
2023/12/05 05:56:00;;;;;;;;;;;;;;;21.81;25.03;98497.59;4925274;29;973;-76
2023/12/05 05:58:26;;;;;;;;;;;;;;;21.89;24.95;98488.94;4942945;29;923;-76
2023/12/05 06:00:51;;;;;;;;;;;;;;;21.84;25.08;98502.38;4927104;29;1256;-76
2023/12/05 06:03:17;;;;;;;;;;;;;;;22.04;24.99;98490.25;4942832;29;798;-76
2023/12/05 06:05:42;;;;;;;;;;;;;;;22.06;24.80;98494.22;4942758;29;1186;-76
2023/12/05 06:08:08;;;;;;;;;;;;;;;21.62;25.43;98498.34;4958818;29;964;-76
2023/12/05 06:10:35;;;;;;;;;;;;;;;21.30;25.94;98499.75;4942987;29;1088;-76
2023/12/05 06:13:00;;;;;;;;;;;;;;;21.30;25.85;98499.75;4943063;29;906;-76
2023/12/05 06:15:26;;;;;;;;;;;;;;;21.55;25.49;98499.28;4928850;28;1130;-76
2023/12/05 06:17:52;;;;;;;;;;;;;;;21.59;25.58;98499.19;4977917;28;1914;-76
2023/12/05 06:20:17;;;;;;;;;;;;;;;21.81;25.06;98499.59;4977553;28;771;-76
2023/12/05 06:22:43;;;;;;;;;;;;;;;21.90;25.19;98493.34;4977814;28;943;-75
2023/12/05 06:25:08;;;;;;;;;;;;;;;21.92;24.90;98483.19;4980115;28;791;-76
2023/12/05 06:27:34;;;;;;;;;;;;;;;21.81;24.87;98489.09;4997107;28;831;-76
2023/12/05 06:29:59;;;;;;;;;;;;;;;21.67;25.22;98489.34;4999402;28;785;-76
2023/12/05 06:32:25;;;;;;;;;;;;;;;21.85;24.85;98495.47;5001831;28;1161;-76
2023/12/05 06:34:51;;;;;;;;;;;;;;;21.79;25.22;98497.19;5019123;28;1167;-76
2023/12/05 06:37:16;;;;;;;;;;;;;;;21.28;25.93;98499.31;5017961;28;1993;-75
2023/12/05 06:39:42;;;;;;;;;;;;;;;21.20;25.96;98489.38;5017646;28;890;-76
2023/12/05 06:42:07;;;;;;;;;;;;;;;21.43;25.68;98496.28;5017701;28;827;-76
2023/12/05 06:44:33;;;;;;;;;;;;;;;21.44;25.60;98486.53;5017333;28;878;-76
2023/12/05 06:46:59;;;;;;;;;;;;;;;21.62;25.15;98491.88;5017838;28;1114;-75
2023/12/05 06:49:25;;;;;;;;;;;;;;;21.84;25.23;98488.19;5003120;28;1253;-76
2023/12/05 06:51:56;;;;;;;;;;;;;;;21.97;24.85;98493.22;5019146;28;1131;-76
2023/12/05 06:54:22;;;;;;;;;;;;;;;21.57;25.54;98484.69;5020521;28;885;-75
2023/12/05 06:56:48;;;;;;;;;;;;;;;21.84;25.17;98481.72;5019867;28;1906;-75
2023/12/05 06:59:14;;;;;;;;;;;;;;;21.78;25.11;98489.16;5019393;28;786;-76
2023/12/05 07:01:39;;;;;;;;;;;;;;;21.48;25.31;98487.28;4983488;28;1164;-76
2023/12/05 07:04:05;;;;;;;;;;;;;;;21.44;25.47;98486.53;4999532;28;851;-75
2023/12/05 07:06:31;;;;;;;;;;;;;;;21.59;25.24;98485.03;5016017;28;806;-76
2023/12/05 07:08:56;;;;;;;;;;;;;;;21.36;25.93;98482.25;4983219;28;1715;-75
2023/12/05 07:11:24;;;;;;;;;;;;;;;21.75;25.06;98482.31;5016123;28;985;-75
2023/12/05 07:13:50;;;;;;;;;;;;;;;21.92;24.86;98476.75;4999595;28;1250;-76
2023/12/05 07:16:16;;;;;;;;;;;;;;;21.96;24.83;98475.41;4999766;28;1903;-76
2023/12/05 07:18:41;;;;;;;;;;;;;;;21.97;24.78;98479.06;4983246;28;1243;-76
2023/12/05 07:21:08;;;;;;;;;;;;;;;21.27;25.72;98483.56;4983178;28;1310;-76
2023/12/05 07:23:34;;;;;;;;;;;;;;;21.29;25.58;98478.28;4999668;28;799;-75
2023/12/05 07:25:59;;;;;;;;;;;;;;;21.63;25.29;98479.31;5015947;28;775;-76
2023/12/05 07:28:25;;;;;;;;;;;;;;;21.64;25.27;98473.22;4999226;28;926;-76
2023/12/05 07:30:51;;;;;;;;;;;;;;;21.59;25.42;98468.84;4999792;28;759;-76
2023/12/05 07:33:16;;;;;;;;;;;;;;;21.79;25.11;98468.06;5017017;28;909;-76
2023/12/05 07:35:42;;;;;;;;;;;;;;;21.84;25.03;98471.19;5000247;28;847;-76
2023/12/05 07:38:08;;;;;;;;;;;;;;;21.60;25.26;98463.97;5016911;28;1910;-76
2023/12/05 07:40:33;;;;;;;;;;;;;;;21.65;25.24;98463.47;4984198;28;1132;-75
2023/12/05 07:42:59;;;;;;;;;;;;;;;21.42;25.62;98472.81;5017510;28;715;-76
2023/12/05 07:45:24;;;;;;;;;;;;;;;21.14;26.06;98468.47;5000433;28;1147;-76
2023/12/05 07:47:50;;;;;;;;;;;;;;;21.14;25.90;98462.81;4963273;28;1110;-75
2023/12/05 07:50:16;;;;;;;;;;;;;;;21.68;25.18;98467.50;4979788;28;1201;-76
2023/12/05 07:52:42;;;;;;;;;;;;;;;21.59;25.45;98459.56;4979293;28;1253;-75
2023/12/05 07:55:08;;;;;;;;;;;;;;;21.76;25.22;98458.44;4979251;28;985;-76
2023/12/05 07:57:33;;;;;;;;;;;;;;;21.61;25.51;98468.44;4995260;28;2017;-75
2023/12/05 07:59:59;;;;;;;;;;;;;;;21.62;25.43;98470.03;4979329;28;1414;-75
2023/12/05 08:02:25;;;;;;;;;;;;;;;21.78;25.28;98461.63;4962186;28;1035;-76
2023/12/05 08:04:51;;;;;;;;;;;;;;;21.87;24.82;98451.75;4976046;28;1433;-76
2023/12/05 08:07:17;;;;;;;;;;;;;;;21.68;25.55;98450.50;4959755;28;908;-76
2023/12/05 08:09:42;;;;;;;;;;;;;;;21.95;24.86;98447.53;4986894;28;1277;-76
2023/12/05 08:12:09;;;;;;;;;;;;;;;21.67;25.27;98449.69;4979287;28;756;-76
2023/12/05 08:14:34;;;;;;;;;;;;;;;21.29;25.74;98449.16;4978968;28;953;-76
2023/12/05 08:17:00;;;;;;;;;;;;;;;21.35;25.66;98446.66;4979047;28;1910;-76
2023/12/05 08:19:25;;;;;;;;;;;;;;;21.69;25.44;98447.22;5024621;28;771;-75
2023/12/05 08:21:51;;;;;;;;;;;;;;;21.41;25.67;98447.78;5018153;28;799;-75
2023/12/05 08:24:23;;;;;;;;;;;;;;;21.91;25.08;98441.13;5093837;27;1309;-75
2023/12/05 08:26:48;;;;;;;;;;;;;;;21.88;25.15;98439.97;5126626;28;750;-75
2023/12/05 08:29:14;;;;;;;;;;;;;;;21.75;25.32;98434.16;5093946;28;771;-74
2023/12/05 08:31:41;;;;;;;;;;;;;;;21.90;24.99;98433.88;5109029;28;767;-75
2023/12/05 08:34:06;;;;;;;;;;;;;;;21.32;25.96;98440.66;5126467;27;727;-74
2023/12/05 08:36:32;;;;;;;;;;;;;;;21.32;25.69;98435.00;5125403;28;1118;-75
2023/12/05 08:38:57;;;;;;;;;;;;;;;21.41;25.57;98430.81;5126375;28;829;-75
2023/12/05 08:41:23;;;;;;;;;;;;;;;21.64;25.30;98422.25;5125997;28;749;-75
2023/12/05 08:43:49;;;;;;;;;;;;;;;21.46;25.32;98427.47;5092995;28;1910;-75
2023/12/05 08:46:14;;;;;;;;;;;;;;;21.71;25.34;98410.78;5126036;28;766;-76
2023/12/05 08:48:40;;;;;;;;;;;;;;;21.62;25.41;98413.41;5125874;28;735;-76
2023/12/05 08:51:06;;;;;;;;;;;;;;;21.72;25.45;98398.22;5093254;28;758;-75
2023/12/05 08:53:31;;;;;;;;;;;;;;;22.14;24.88;98401.41;5092404;28;786;-76
2023/12/05 08:55:57;;;;;;;;;;;;;;;21.94;25.18;98404.22;5125916;28;860;-76
2023/12/05 08:58:23;;;;;;;;;;;;;;;21.46;25.67;98410.50;5108634;28;1137;-76
2023/12/05 09:00:48;;;;;;;;;;;;;;;21.57;25.76;98405.41;5125479;27;790;-76
2023/12/05 09:03:14;;;;;;;;;;;;;;;21.46;25.66;98385.81;5092897;28;2000;-76
2023/12/05 09:05:40;;;;;;;;;;;;;;;21.31;26.26;98392.97;5125631;28;836;-75
2023/12/05 09:08:05;;;;;;;;;;;;;;;21.26;26.39;98397.06;5091742;28;1317;-75
2023/12/05 09:10:31;;;;;;;;;;;;;;;21.34;25.78;98380.78;5127504;28;916;-74
2023/12/05 09:12:56;;;;;;;;;;;;;;;21.45;25.75;98374.91;5093705;28;1118;-75
2023/12/05 09:15:22;;;;;;;;;;;;;;;21.63;25.54;98381.00;5110485;28;821;-75
2023/12/05 09:17:47;;;;;;;;;;;;;;;21.66;25.53;98371.66;5110859;28;1109;-75
2023/12/05 09:20:13;;;;;;;;;;;;;;;21.61;25.29;98372.16;5086757;28;1272;-75
2023/12/05 09:22:38;;;;;;;;;;;;;;;21.20;25.91;98373.34;5053306;28;1978;-75
2023/12/05 09:25:05;;;;;;;;;;;;;;;21.74;25.28;98364.59;5069912;28;966;-74
2023/12/05 09:27:31;;;;;;;;;;;;;;;21.72;25.18;98361.41;5086973;28;884;-75
2023/12/05 09:29:56;;;;;;;;;;;;;;;21.93;24.89;98360.13;5069618;28;963;-75
2023/12/05 09:32:22;;;;;;;;;;;;;;;21.82;25.04;98356.75;5053230;28;1169;-75
2023/12/05 09:34:48;;;;;;;;;;;;;;;21.14;25.77;98348.78;5028459;28;1099;-75
2023/12/05 09:37:14;;;;;;;;;;;;;;;21.36;25.58;98346.38;5056238;28;1234;-75
2023/12/05 09:39:40;;;;;;;;;;;;;;;21.57;25.50;98326.13;5073039;28;909;-75
2023/12/05 09:42:06;;;;;;;;;;;;;;;21.56;25.24;98338.69;5072811;28;1910;-75
2023/12/05 09:44:33;;;;;;;;;;;;;;;21.98;24.65;98327.66;5072768;28;1175;-75
2023/12/05 09:47:00;;;;;;;;;;;;;;;21.52;25.36;98318.13;5072569;28;837;-75
2023/12/05 09:49:28;;;;;;;;;;;;;;;21.55;25.17;98322.91;5055980;28;1296;-75
2023/12/05 09:51:53;;;;;;;;;;;;;;;21.26;25.80;98323.50;5104815;28;828;-75
2023/12/05 09:54:19;;;;;;;;;;;;;;;21.51;25.27;98322.22;5096024;28;892;-75
2023/12/05 09:56:45;;;;;;;;;;;;;;;21.70;25.13;98307.22;5079452;28;1539;-76
2023/12/05 09:59:13;;;;;;;;;;;;;;;21.40;25.46;98311.13;5079554;28;818;-75
2023/12/05 10:01:39;;;;;;;;;;;;;;;20.98;26.29;98312.72;5080043;28;1200;-75
2023/12/05 10:04:04;;;;;;;;;;;;;;;21.52;25.43;98306.81;5113106;28;1905;-75
2023/12/05 10:06:30;;;;;;;;;;;;;;;21.61;25.03;98298.53;5079228;28;1113;-75
2023/12/05 10:08:56;;;;;;;;;;;;;;;21.49;25.54;98299.97;5078973;28;1207;-75
2023/12/05 10:11:22;;;;;;;;;;;;;;;21.76;25.15;98296.97;5062500;28;1186;-75
2023/12/05 10:13:47;;;;;;;;;;;;;;;21.91;24.91;98293.81;5062164;28;964;-75
2023/12/05 10:16:13;;;;;;;;;;;;;;;21.99;24.54;98292.41;5062939;28;932;-75
2023/12/05 10:18:39;;;;;;;;;;;;;;;21.80;24.94;98294.84;5039417;28;1498;-75
2023/12/05 10:21:05;;;;;;;;;;;;;;;21.62;24.99;98283.13;5022766;28;939;-75
2023/12/05 10:23:30;;;;;;;;;;;;;;;21.87;24.64;98270.44;5038804;28;1902;-75
2023/12/05 10:25:56;;;;;;;;;;;;;;;22.10;24.58;98267.44;5039188;28;902;-75
2023/12/05 10:28:23;;;;;;;;;;;;;;;21.76;24.78;98254.50;5022411;28;1389;-75
2023/12/05 10:30:48;;;;;;;;;;;;;;;21.48;25.27;98249.47;5022130;28;1251;-75
2023/12/05 10:33:17;;;;;;;;;;;;;;;21.44;25.56;98243.09;5038269;28;950;-75
2023/12/05 10:35:43;;;;;;;;;;;;;;;21.64;25.34;98246.66;5038926;28;1182;-75
2023/12/05 10:38:10;;;;;;;;;;;;;;;21.57;25.28;98246.84;5038710;28;896;-75
2023/12/05 10:40:51;;;;;;;;;;;;;;;21.81;25.03;98242.66;5038944;28;786;-75
2023/12/05 10:43:17;;;;;;;;;;;;;;;21.77;24.77;98238.31;5038477;28;1902;-75
2023/12/05 10:45:43;;;;;;;;;;;;;;;21.96;24.51;98234.56;5025948;28;1230;-75
2023/12/05 10:48:09;;;;;;;;;;;;;;;21.88;24.94;98238.03;5058212;28;1126;-75
2023/12/05 10:50:35;;;;;;;;;;;;;;;21.71;25.09;98240.03;5058313;28;1118;-74
2023/12/05 10:53:01;;;;;;;;;;;;;;;21.91;24.86;98237.13;5075183;28;833;-75
2023/12/05 10:55:26;;;;;;;;;;;;;;;21.98;24.75;98239.81;5058144;28;758;-75
2023/12/05 10:57:52;;;;;;;;;;;;;;;21.59;25.31;98245.16;5075005;28;717;-75
2023/12/05 11:00:18;;;;;;;;;;;;;;;21.27;25.72;98251.50;5058070;28;731;-75
2023/12/05 11:02:45;;;;;;;;;;;;;;;21.24;25.76;98241.06;5074575;28;1898;-75
2023/12/05 11:05:10;;;;;;;;;;;;;;;21.58;25.28;98243.56;5074821;28;777;-75
2023/12/05 11:07:36;;;;;;;;;;;;;;;21.64;25.12;98240.22;5074816;28;750;-75
2023/12/05 11:10:02;;;;;;;;;;;;;;;21.92;24.57;98250.09;5053198;28;776;-75
2023/12/05 11:12:28;;;;;;;;;;;;;;;21.91;24.59;98237.13;5072376;28;1256;-75
2023/12/05 11:14:54;;;;;;;;;;;;;;;21.82;24.84;98241.41;5089406;28;846;-75
2023/12/05 11:17:27;;;;;;;;;;;;;;;21.89;24.86;98231.13;5072401;28;888;-75
2023/12/05 11:19:59;;;;;;;;;;;;;;;21.57;25.16;98241.19;5055187;28;1185;-75
2023/12/05 11:22:51;;;;;;;;;;;;;;;21.41;25.70;98238.31;5056361;28;1902;-75
2023/12/05 11:25:27;;;;;;;;;;;;;;;21.55;25.29;98237.97;5074305;28;954;-75
2023/12/05 11:27:59;;;;;;;;;;;;;;;21.80;25.08;98232.53;5074518;28;762;-75
2023/12/05 11:30:31;;;;;;;;;;;;;;;21.94;24.91;98231.41;5057341;28;868;-75
2023/12/05 11:33:12;;;;;;;;;;;;;;;21.92;24.92;98227.44;5057633;28;848;-75
2023/12/05 11:35:38;;;;;;;;;;;;;;;21.80;24.89;98220.41;5074025;28;915;-75
2023/12/05 11:38:13;;;;;;;;;;;;;;;21.88;24.78;98232.38;5057483;28;1210;-75
2023/12/05 11:40:41;;;;;;;;;;;;;;;21.90;24.65;98224.22;5040412;28;1330;-75
2023/12/05 11:43:08;;;;;;;;;;;;;;;21.89;24.74;98222.63;5074169;28;1964;-75
2023/12/05 11:45:37;;;;;;;;;;;;;;;21.40;25.28;98216.88;5057147;28;1337;-75
2023/12/05 11:48:03;;;;;;;;;;;;;;;21.20;25.66;98217.69;5073785;28;896;-75
2023/12/05 11:50:45;;;;;;;;;;;;;;;21.61;25.27;98213.59;5074132;28;802;-75
2023/12/05 11:53:14;;;;;;;;;;;;;;;21.79;24.83;98213.16;5057293;28;722;-75
2023/12/05 11:55:45;;;;;;;;;;;;;;;21.70;25.31;98204.47;5040561;28;1183;-75
2023/12/05 11:58:30;;;;;;;;;;;;;;;21.90;24.67;98187.41;5056809;28;752;-75
2023/12/05 12:01:14;;;;;;;;;;;;;;;21.97;24.72;98173.06;5073216;28;1058;-75
2023/12/05 12:03:44;;;;;;;;;;;;;;;21.71;25.29;98170.06;5087871;28;1989;-75
2023/12/05 12:06:09;;;;;;;;;;;;;;;22.06;24.56;98170.38;5071513;28;798;-75
2023/12/05 12:08:35;;;;;;;;;;;;;;;21.86;24.65;98167.66;5088413;28;846;-75
2023/12/05 12:11:01;;;;;;;;;;;;;;;21.95;24.70;98169.88;5071509;28;889;-75
2023/12/05 12:13:26;;;;;;;;;;;;;;;22.03;24.79;98159.97;5088215;28;829;-76
2023/12/05 12:15:53;;;;;;;;;;;;;;;21.62;25.03;98167.03;5053723;28;1129;-75
2023/12/05 12:18:27;;;;;;;;;;;;;;;21.45;25.29;98165.41;5088247;28;763;-75
2023/12/05 12:20:53;;;;;;;;;;;;;;;21.66;24.89;98162.09;5093467;28;1029;-75
2023/12/05 12:23:19;;;;;;;;;;;;;;;21.71;25.11;98161.56;5076458;28;1906;-75
2023/12/05 12:25:53;;;;;;;;;;;;;;;21.81;24.89;98159.69;5060255;28;1238;-75
2023/12/05 12:28:26;;;;;;;;;;;;;;;21.95;24.59;98164.19;5060446;28;2106;-75
2023/12/05 12:30:52;;;;;;;;;;;;;;;21.82;24.83;98162.09;5060398;28;896;-75
2023/12/05 12:33:18;;;;;;;;;;;;;;;22.08;24.46;98160.22;5056541;28;1150;-75
2023/12/05 12:35:43;;;;;;;;;;;;;;;21.99;24.51;98159.25;5056532;28;900;-75
2023/12/05 12:38:09;;;;;;;;;;;;;;;21.81;24.80;98160.50;5073589;28;814;-75
2023/12/05 12:40:35;;;;;;;;;;;;;;;21.76;25.00;98155.38;5073347;28;1110;-75
2023/12/05 12:43:00;;;;;;;;;;;;;;;22.10;24.37;98165.44;5039977;28;1906;-75
2023/12/05 12:45:26;;;;;;;;;;;;;;;21.84;24.43;98159.59;5053363;28;901;-75
2023/12/05 12:47:52;;;;;;;;;;;;;;;21.51;25.16;98155.19;5020081;28;1308;-75
2023/12/05 12:50:18;;;;;;;;;;;;;;;21.66;25.05;98147.94;5036729;28;977;-75
2023/12/05 12:52:43;;;;;;;;;;;;;;;21.56;24.99;98149.00;4986823;28;881;-75
2023/12/05 12:55:09;;;;;;;;;;;;;;;21.68;25.07;98145.44;4993989;28;906;-75
2023/12/05 12:57:35;;;;;;;;;;;;;;;21.71;24.75;98144.56;4977779;28;1249;-75